Airfield :
LOGIN :

Register | Disclaimer

   EN    FR    IT 

 










Legend :    VFR   Marginal VFR   IFR   Intensive IFR   Very Intensive IFR
Visi :
Ceiling :
>= 8 km
>= 3000ft
5 to 8 km
1000 to 3000 ft
1500m to 5 km
500 to 1000 ft
800 to 1500m
200 to 500 ft
< 800m
< 200 ft
Symbols :   Thunderstorms  Fog  Heavy snow  Heavy precipitations  Wind > 20 kt
SIGMETs :     Misc.  Thunderstorms  Icing  Turbulence  Mountain Waves  Volcanic Ashes






- Airport Elevation : 374 ft
- IATA code : LIS


LPPT - Lisboa Portela

CURRENT METAR :
  • 220000Z VRB02KT CAVOK 12/11 Q1025

EXPIRED METARs :
  • 212330Z 24003KT CAVOK 13/12 Q1025
  • 212300Z 21004KT CAVOK 12/11 Q1025
  • 212230Z 28003KT CAVOK 13/11 Q1026
  • 212200Z VRB02KT CAVOK 13/11 Q1026
  • 212130Z 30002KT CAVOK 14/11 Q1026
  • 212100Z 27003KT 220V340 CAVOK 14/12 Q1026
  • 212030Z 30006KT 280V340 CAVOK 14/12 Q1026
  • 212000Z 31005KT 280V340 CAVOK 14/12 Q1026
  • 211930Z 30008KT CAVOK 14/12 Q1026
  • 211900Z 31007KT CAVOK 15/11 Q1026

TAF TAF LPPT
Valid from the 22 at 00:00 until the 23 at 06:00 UTC


212300Z 2200/2306 25005KT 9999 SCT020
BECMG 2206/2208 25012KT SCT012 BKN020
TEMPO 2206/2212 5000 -RA SCT006 BKN012
BECMG 2212/2214 25017KT 5000 RA SCT005 BKN015
TEMPO 2212/2216 3000 RADZ BR SCT004 BKN008
BECMG 2216/2218 34013KT 9999 NSW SCT015 SCT035
TEMPO 2216/2306 8000 SHRA SCT012 BKN025 FEW030CB



MET'MAP, your aeronautical weather chart ! - Copyright ORBIFLY December 2007 - Disclaimer

ORBIFLY MET'MAP TEAM :

Programming & Development : Alexandra Zaïnal
Original concept : Baudouin d'Aumeries
Technical & hardware support : Manuel Goepfert
Assistance : Marc-Olivier Méhu




SOURCES & CREDITS :

   NOAA